Time;durP1;ratioP1;P1;durP2;ratioP2;P2;SDS_P1;SDS_P2;PMS_P1;PMS_P2;Temp;Humidity;BMP_temperature;BMP_pressure;BME280_temperature;BME280_humidity;BME280_pressure;Samples;Min_cycle;Max_cycle;Signal;HPM_P1;HPM_P2
2024/03/07 00:01:35;;;;;;;13.45;10.02;;;;;;;;;;4885420;29;20036;-92
2024/03/07 00:04:01;;;;;;;13.35;9.75;;;;;;;;;;4883818;29;20028;-93
2024/03/07 00:06:27;;;;;;;13.38;8.75;;;;;;;;;;4883162;29;20036;-94
2024/03/07 00:08:54;;;;;;;11.95;8.75;;;;;;;;;;4883322;29;20033;-94
2024/03/07 00:11:21;;;;;;;12.90;9.35;;;;;;;;;;4892472;29;20036;-93
2024/03/07 00:13:47;;;;;;;12.52;8.82;;;;;;;;;;4920188;29;20028;-92
2024/03/07 00:16:13;;;;;;;13.65;9.50;;;;;;;;;;4906730;29;20123;-94
2024/03/07 00:18:40;;;;;;;11.98;8.07;;;;;;;;;;4901765;29;20024;-91
2024/03/07 00:21:07;;;;;;;11.65;7.82;;;;;;;;;;4901821;29;20035;-93
2024/03/07 00:23:33;;;;;;;12.13;8.18;;;;;;;;;;4901011;29;20133;-93
2024/03/07 00:25:59;;;;;;;12.48;8.35;;;;;;;;;;4883877;29;20033;-93
2024/03/07 00:28:29;;;;;;;12.32;8.57;;;;;;;;;;4882259;29;20573;-94
2024/03/07 00:30:55;;;;;;;12.75;8.88;;;;;;;;;;4882710;29;20039;-92
2024/03/07 00:33:22;;;;;;;13.05;9.00;;;;;;;;;;4883444;29;20033;-94
2024/03/07 00:35:48;;;;;;;13.45;8.80;;;;;;;;;;4882738;29;20029;-94
2024/03/07 00:38:14;;;;;;;13.13;8.65;;;;;;;;;;4882468;29;20068;-92
2024/03/07 00:40:40;;;;;;;13.20;8.02;;;;;;;;;;4882433;29;20045;-94
2024/03/07 00:43:06;;;;;;;12.82;7.78;;;;;;;;;;4882616;29;20033;-94
2024/03/07 00:45:33;;;;;;;12.30;7.70;;;;;;;;;;4897694;29;20028;-95
2024/03/07 00:48:01;;;;;;;12.32;8.68;;;;;;;;;;4919379;29;20036;-94
2024/03/07 00:50:27;;;;;;;13.52;8.40;;;;;;;;;;4903429;29;20107;-93
2024/03/07 00:52:53;;;;;;;14.35;9.43;;;;;;;;;;4902636;29;20036;-94
2024/03/07 00:55:20;;;;;;;13.15;8.80;;;;;;;;;;4901264;29;20029;-94
2024/03/07 00:57:46;;;;;;;18.25;12.98;;;;;;;;;;4901134;29;20056;-94
2024/03/07 01:00:13;;;;;;;19.45;12.45;;;;;;;;;;4902158;29;20044;-94
2024/03/07 01:02:43;;;;;;;18.40;12.40;;;;;;;;;;4902687;29;20036;-91
2024/03/07 01:05:09;;;;;;;14.57;9.23;;;;;;;;;;4902917;29;20028;-95
2024/03/07 01:07:37;;;;;;;14.13;9.82;;;;;;;;;;4902373;29;20036;-92
2024/03/07 01:10:05;;;;;;;14.95;9.90;;;;;;;;;;4887009;29;20482;-96
2024/03/07 01:12:34;;;;;;;19.88;13.05;;;;;;;;;;4886375;29;20523;-95
2024/03/07 01:15:00;;;;;;;15.73;10.27;;;;;;;;;;4889955;29;20034;-95
2024/03/07 01:17:26;;;;;;;17.70;10.95;;;;;;;;;;4888059;29;20115;-95
2024/03/07 01:19:53;;;;;;;15.10;10.07;;;;;;;;;;4904803;29;20024;-91
2024/03/07 01:22:19;;;;;;;14.60;10.10;;;;;;;;;;4890224;29;20103;-94
2024/03/07 01:24:46;;;;;;;19.88;12.10;;;;;;;;;;4887239;29;20039;-95
2024/03/07 01:27:12;;;;;;;17.63;11.43;;;;;;;;;;4884547;29;20056;-93
2024/03/07 01:29:44;;;;;;;15.18;10.23;;;;;;;;;;4886640;29;20048;-95
2024/03/07 01:32:10;;;;;;;16.05;10.98;;;;;;;;;;4913175;29;20029;-94
2024/03/07 01:34:37;;;;;;;18.35;12.20;;;;;;;;;;4901369;29;20013;-95
2024/03/07 01:37:03;;;;;;;19.23;10.93;;;;;;;;;;4887076;29;20065;-92
2024/03/07 01:39:30;;;;;;;18.27;11.25;;;;;;;;;;4905470;29;20020;-94
2024/03/07 01:41:56;;;;;;;16.95;11.45;;;;;;;;;;4909096;29;20036;-96
2024/03/07 01:44:22;;;;;;;15.15;10.43;;;;;;;;;;4907527;29;20433;-92
2024/03/07 01:46:50;;;;;;;20.65;12.95;;;;;;;;;;4898512;29;20067;-94
2024/03/07 01:49:17;;;;;;;23.83;14.60;;;;;;;;;;4909194;29;20410;-94
2024/03/07 01:51:43;;;;;;;25.95;14.52;;;;;;;;;;4907578;29;20095;-93
2024/03/07 01:54:10;;;;;;;23.10;14.02;;;;;;;;;;4918528;29;20129;-93
2024/03/07 01:56:38;;;;;;;21.08;13.15;;;;;;;;;;4915816;29;20507;-94
2024/03/07 01:59:05;;;;;;;21.05;12.82;;;;;;;;;;4904631;29;20028;-95
2024/03/07 02:01:31;;;;;;;19.42;12.23;;;;;;;;;;4900707;29;20032;-92
2024/03/07 02:03:58;;;;;;;21.85;13.57;;;;;;;;;;4886245;29;20032;-95
2024/03/07 02:06:25;;;;;;;20.02;12.18;;;;;;;;;;4889121;29;20043;-94
2024/03/07 02:08:51;;;;;;;21.35;13.50;;;;;;;;;;4916637;29;20048;-94
2024/03/07 02:11:17;;;;;;;20.30;12.30;;;;;;;;;;4916672;29;20087;-94
2024/03/07 02:13:44;;;;;;;21.02;12.07;;;;;;;;;;4908957;29;20513;-94
2024/03/07 02:16:10;;;;;;;19.23;12.05;;;;;;;;;;4905409;29;20021;-93
2024/03/07 02:18:38;;;;;;;18.17;12.15;;;;;;;;;;4904129;29;20418;-95
2024/03/07 02:21:08;;;;;;;19.13;12.52;;;;;;;;;;4904416;29;20091;-94
2024/03/07 02:23:35;;;;;;;16.95;11.00;;;;;;;;;;4904912;29;20059;-95
2024/03/07 02:26:01;;;;;;;23.83;12.88;;;;;;;;;;4904297;29;20058;-94
2024/03/07 02:28:27;;;;;;;22.15;11.98;;;;;;;;;;4904080;29;20036;-94
2024/03/07 02:30:53;;;;;;;19.88;12.57;;;;;;;;;;4904414;29;20028;-95
2024/03/07 02:33:20;;;;;;;19.02;11.70;;;;;;;;;;4890734;29;20029;-94
2024/03/07 02:35:46;;;;;;;19.42;12.40;;;;;;;;;;4884979;29;20123;-94
2024/03/07 02:38:12;;;;;;;19.02;12.18;;;;;;;;;;4885252;29;20120;-92
2024/03/07 02:40:38;;;;;;;18.83;12.02;;;;;;;;;;4892453;29;20478;-94
2024/03/07 02:43:04;;;;;;;17.35;11.70;;;;;;;;;;4905257;29;20032;-95
2024/03/07 02:45:31;;;;;;;17.23;11.45;;;;;;;;;;4904483;29;20032;-91
2024/03/07 02:47:57;;;;;;;20.15;11.75;;;;;;;;;;4895267;29;20028;-94
2024/03/07 02:50:25;;;;;;;20.60;12.07;;;;;;;;;;4884286;29;20115;-93
2024/03/07 02:52:52;;;;;;;21.38;13.35;;;;;;;;;;4885025;29;20582;-94
2024/03/07 02:55:19;;;;;;;24.80;15.13;;;;;;;;;;4884786;29;20501;-96
2024/03/07 02:57:45;;;;;;;22.20;14.73;;;;;;;;;;4890917;29;20055;-93
2024/03/07 03:00:26;;;;;;;22.08;13.55;;;;;;;;;;4904419;29;20491;-93
2024/03/07 03:02:52;;;;;;;22.05;13.57;;;;;;;;;;4915502;29;20062;-93
2024/03/07 03:05:19;;;;;;;20.02;11.95;;;;;;;;;;4897863;29;20092;-94
2024/03/07 03:07:52;;;;;;;21.35;12.05;;;;;;;;;;4884736;29;20120;-94
2024/03/07 03:10:30;;;;;;;21.10;12.60;;;;;;;;;;4893284;29;20047;-94
2024/03/07 03:13:00;;;;;;;19.98;11.68;;;;;;;;;;4903298;29;20044;-94
2024/03/07 03:15:27;;;;;;;20.67;12.88;;;;;;;;;;4903727;29;20462;-94
2024/03/07 03:17:53;;;;;;;22.55;13.32;;;;;;;;;;4902674;29;20130;-92
2024/03/07 03:20:25;;;;;;;20.73;13.35;;;;;;;;;;4902979;29;20024;-96
2024/03/07 03:22:54;;;;;;;21.05;13.10;;;;;;;;;;4902909;29;20024;-91
2024/03/07 03:25:23;;;;;;;22.25;14.10;;;;;;;;;;4902752;29;20171;-95
2024/03/07 03:27:49;;;;;;;22.02;13.75;;;;;;;;;;4902967;29;20363;-93
2024/03/07 03:30:18;;;;;;;23.00;13.80;;;;;;;;;;4903498;29;20032;-94
2024/03/07 03:32:47;;;;;;;23.15;15.05;;;;;;;;;;4905960;29;20044;-92
2024/03/07 03:35:13;;;;;;;22.90;15.18;;;;;;;;;;4920523;29;20039;-94
2024/03/07 03:37:41;;;;;;;23.13;14.13;;;;;;;;;;4907785;29;20032;-91
2024/03/07 03:40:09;;;;;;;23.13;14.00;;;;;;;;;;4902390;29;20036;-94
2024/03/07 03:42:38;;;;;;;23.80;14.52;;;;;;;;;;4900818;29;20032;-92
2024/03/07 03:45:09;;;;;;;19.55;13.15;;;;;;;;;;4895369;29;20045;-95
2024/03/07 03:47:35;;;;;;;18.13;12.60;;;;;;;;;;4902429;29;20032;-91
2024/03/07 03:50:09;;;;;;;15.15;11.23;;;;;;;;;;4902543;29;20389;-95
2024/03/07 03:52:35;;;;;;;15.60;11.30;;;;;;;;;;4903742;29;20130;-92
2024/03/07 03:55:02;;;;;;;14.43;9.63;;;;;;;;;;4902680;29;20040;-94
2024/03/07 03:57:29;;;;;;;13.50;9.02;;;;;;;;;;4902172;29;20074;-93
2024/03/07 03:59:55;;;;;;;14.48;8.30;;;;;;;;;;4902199;29;20478;-94
2024/03/07 04:02:22;;;;;;;12.13;7.88;;;;;;;;;;4894851;29;20122;-94
2024/03/07 04:04:49;;;;;;;12.02;8.35;;;;;;;;;;4887355;29;20028;-94
2024/03/07 04:07:19;;;;;;;10.48;6.88;;;;;;;;;;4904405;29;20032;-93
2024/03/07 04:09:46;;;;;;;9.88;6.93;;;;;;;;;;4920127;29;20115;-94
2024/03/07 04:12:15;;;;;;;10.02;7.25;;;;;;;;;;4900670;29;20044;-93
2024/03/07 04:14:42;;;;;;;10.52;7.57;;;;;;;;;;4884906;29;20041;-93
2024/03/07 04:17:08;;;;;;;10.60;8.15;;;;;;;;;;4890233;29;20048;-94
2024/03/07 04:19:36;;;;;;;9.75;7.78;;;;;;;;;;4887679;29;20036;-94
2024/03/07 04:22:05;;;;;;;12.32;7.30;;;;;;;;;;4884652;29;20123;-94
2024/03/07 04:24:35;;;;;;;8.27;6.20;;;;;;;;;;4883713;29;20056;-95
2024/03/07 04:27:05;;;;;;;10.13;7.30;;;;;;;;;;4884140;29;20043;-92
2024/03/07 04:29:34;;;;;;;10.10;6.63;;;;;;;;;;4883506;29;20040;-95
2024/03/07 04:32:01;;;;;;;8.43;6.15;;;;;;;;;;4910292;29;20050;-92
2024/03/07 04:34:30;;;;;;;10.18;8.00;;;;;;;;;;4903122;29;20092;-94
2024/03/07 04:36:58;;;;;;;9.65;6.72;;;;;;;;;;4885957;29;20055;-91
2024/03/07 04:39:43;;;;;;;10.05;7.78;;;;;;;;;;4896379;29;20611;-95
2024/03/07 04:42:09;;;;;;;9.15;7.07;;;;;;;;;;4882847;29;20028;-94
2024/03/07 04:44:36;;;;;;;10.77;7.55;;;;;;;;;;4895914;29;20496;-94
2024/03/07 04:47:07;;;;;;;9.82;6.97;;;;;;;;;;4882191;29;20032;-95
2024/03/07 04:49:33;;;;;;;9.65;6.75;;;;;;;;;;4893003;29;20024;-94
2024/03/07 04:52:00;;;;;;;10.02;7.15;;;;;;;;;;4900777;29;20048;-94
2024/03/07 04:54:27;;;;;;;10.20;7.15;;;;;;;;;;4901004;29;20031;-92
2024/03/07 04:56:54;;;;;;;9.95;6.75;;;;;;;;;;4885444;29;20052;-94
2024/03/07 04:59:21;;;;;;;8.88;7.07;;;;;;;;;;4883022;29;20112;-92
2024/03/07 05:01:48;;;;;;;10.05;7.10;;;;;;;;;;4882932;29;20124;-94
2024/03/07 05:04:14;;;;;;;9.48;6.80;;;;;;;;;;4882752;29;20037;-94
2024/03/07 05:06:41;;;;;;;10.32;6.97;;;;;;;;;;4882792;29;20036;-92
2024/03/07 05:09:08;;;;;;;9.65;7.10;;;;;;;;;;4883039;29;20176;-93
2024/03/07 05:11:35;;;;;;;8.75;6.82;;;;;;;;;;4882638;29;20481;-91
2024/03/07 05:14:01;;;;;;;10.70;8.13;;;;;;;;;;4895575;29;20024;-91
2024/03/07 05:16:28;;;;;;;10.20;7.72;;;;;;;;;;4901706;29;20045;-94
2024/03/07 05:18:58;;;;;;;10.30;7.95;;;;;;;;;;4902669;29;20052;-93
2024/03/07 05:24:03;;;;;;;9.95;8.10;;;;;;;;;;4903443;29;20080;-93
2024/03/07 05:26:40;;;;;;;10.13;7.63;;;;;;;;;;4886139;29;20035;-94
2024/03/07 05:29:09;;;;;;;10.20;8.05;;;;;;;;;;4886135;29;20075;-94
2024/03/07 05:31:45;;;;;;;11.65;8.93;;;;;;;;;;4885902;29;20052;-91
2024/03/07 05:34:13;;;;;;;11.05;8.40;;;;;;;;;;4885935;29;20517;-91
2024/03/07 05:36:46;;;;;;;10.82;8.38;;;;;;;;;;4886004;29;20161;-94
2024/03/07 05:39:13;;;;;;;11.13;8.52;;;;;;;;;;4887096;29;20033;-92
2024/03/07 05:41:40;;;;;;;12.25;9.07;;;;;;;;;;4886248;29;20029;-95
2024/03/07 05:44:09;;;;;;;11.55;9.13;;;;;;;;;;4886264;29;20035;-95
2024/03/07 05:46:45;;;;;;;11.88;8.57;;;;;;;;;;4885558;29;20033;-94
2024/03/07 05:49:11;;;;;;;11.63;8.18;;;;;;;;;;4886048;29;20056;-95
2024/03/07 05:51:38;;;;;;;12.02;8.88;;;;;;;;;;4885978;29;20047;-94
2024/03/07 05:54:06;;;;;;;13.60;9.55;;;;;;;;;;4886215;29;20025;-94
2024/03/07 05:56:38;;;;;;;11.32;8.63;;;;;;;;;;4894368;29;20147;-94
2024/03/07 05:59:04;;;;;;;10.93;8.73;;;;;;;;;;4905032;29;20446;-93
2024/03/07 06:01:50;;;;;;;11.98;8.32;;;;;;;;;;4913250;29;20092;-93
2024/03/07 06:04:17;;;;;;;9.55;8.20;;;;;;;;;;4924981;29;20064;-92
2024/03/07 06:06:43;;;;;;;13.20;8.75;;;;;;;;;;4921791;29;20032;-94
2024/03/07 06:09:13;;;;;;;10.27;8.30;;;;;;;;;;4920416;29;20119;-93
2024/03/07 06:11:42;;;;;;;10.50;7.90;;;;;;;;;;4919996;29;20032;-94
2024/03/07 06:14:08;;;;;;;10.02;8.02;;;;;;;;;;4913412;29;20040;-93
2024/03/07 06:16:38;;;;;;;10.48;8.18;;;;;;;;;;4904283;29;20024;-95
2024/03/07 06:19:08;;;;;;;10.63;7.07;;;;;;;;;;4901873;29;20032;-93
2024/03/07 06:21:35;;;;;;;9.93;7.78;;;;;;;;;;4904221;29;20036;-94
2024/03/07 06:24:02;;;;;;;9.82;7.88;;;;;;;;;;4903553;29;20028;-94
2024/03/07 06:29:14;;;;;;;9.50;7.78;;;;;;;;;;4920799;29;20066;-94
2024/03/07 06:31:46;;;;;;;11.15;9.23;;;;;;;;;;4905142;29;20504;-94
2024/03/07 06:34:48;;;;;;;9.90;7.60;;;;;;;;;;4904117;29;20028;-94
2024/03/07 06:37:14;;;;;;;10.48;7.43;;;;;;;;;;4904750;29;20032;-93
2024/03/07 06:39:40;;;;;;;10.38;8.80;;;;;;;;;;4901348;29;20470;-93
2024/03/07 06:42:06;;;;;;;11.30;8.73;;;;;;;;;;4885661;29;20043;-93
2024/03/07 06:44:33;;;;;;;10.48;7.40;;;;;;;;;;4885161;29;20498;-92
2024/03/07 06:46:59;;;;;;;10.35;8.30;;;;;;;;;;4885361;29;20037;-94
2024/03/07 06:49:28;;;;;;;10.52;9.02;;;;;;;;;;4883147;29;20032;-91
2024/03/07 06:51:54;;;;;;;11.07;9.95;;;;;;;;;;4884459;29;20060;-95
2024/03/07 06:54:21;;;;;;;13.90;12.70;;;;;;;;;;4887158;29;20049;-94
2024/03/07 06:56:47;;;;;;;16.60;15.00;;;;;;;;;;4907193;29;20043;-91
2024/03/07 06:59:14;;;;;;;18.48;16.73;;;;;;;;;;4902419;29;20040;-93
2024/03/07 07:01:42;;;;;;;20.50;18.65;;;;;;;;;;4888168;29;20029;-94
2024/03/07 07:04:09;;;;;;;16.90;15.13;;;;;;;;;;4886235;29;20028;-94
2024/03/07 07:06:35;;;;;;;22.80;20.83;;;;;;;;;;4898692;29;20035;-93
2024/03/07 07:09:03;;;;;;;20.48;18.75;;;;;;;;;;4903158;29;20111;-93
2024/03/07 07:11:30;;;;;;;29.58;27.48;;;;;;;;;;4900297;29;20072;-94
2024/03/07 07:13:56;;;;;;;21.75;20.05;;;;;;;;;;4884972;29;20043;-93
2024/03/07 07:16:45;;;;;;;26.38;24.42;;;;;;;;;;4889785;29;20019;-93
2024/03/07 07:19:14;;;;;;;31.13;28.90;;;;;;;;;;4880367;29;20079;-90
2024/03/07 07:21:41;;;;;;;25.77;23.88;;;;;;;;;;4884244;29;20036;-93
2024/03/07 07:24:08;;;;;;;28.15;26.15;;;;;;;;;;4884206;29;20035;-95
2024/03/07 07:26:34;;;;;;;28.70;26.63;;;;;;;;;;4883879;29;20036;-95
2024/03/07 07:29:00;;;;;;;34.33;32.03;;;;;;;;;;4890552;29;20466;-93
2024/03/07 07:31:26;;;;;;;28.73;26.67;;;;;;;;;;4903892;29;20040;-92
2024/03/07 07:33:53;;;;;;;31.40;29.17;;;;;;;;;;4892482;29;20032;-94
2024/03/07 07:36:19;;;;;;;29.02;26.83;;;;;;;;;;4884086;29;20043;-94
2024/03/07 07:38:46;;;;;;;34.85;32.58;;;;;;;;;;4902792;29;20095;-94
2024/03/07 07:41:12;;;;;;;36.35;33.88;;;;;;;;;;4902548;29;20025;-94
2024/03/07 07:43:40;;;;;;;25.90;24.10;;;;;;;;;;4902401;29;20108;-93
2024/03/07 07:46:06;;;;;;;37.53;35.10;;;;;;;;;;4902549;29;20031;-94
2024/03/07 07:48:33;;;;;;;41.30;38.72;;;;;;;;;;4920578;29;20577;-91
2024/03/07 07:50:59;;;;;;;45.78;42.85;;;;;;;;;;4903242;29;20036;-95
2024/03/07 07:53:25;;;;;;;50.95;47.72;;;;;;;;;;4897627;29;20199;-94
2024/03/07 07:55:51;;;;;;;47.40;44.50;;;;;;;;;;4885484;29;20474;-93
2024/03/07 07:58:17;;;;;;;49.35;46.25;;;;;;;;;;4884852;29;20036;-94
2024/03/07 08:00:44;;;;;;;55.38;51.88;;;;;;;;;;4884900;29;20028;-94
2024/03/07 08:03:10;;;;;;;61.08;57.42;;;;;;;;;;4888774;29;20076;-92
2024/03/07 08:05:37;;;;;;;66.80;62.92;;;;;;;;;;4885833;29;20028;-93
2024/03/07 08:08:06;;;;;;;64.43;60.65;;;;;;;;;;4886311;29;20039;-95
2024/03/07 08:10:32;;;;;;;85.80;81.07;;;;;;;;;;4903801;29;20099;-93
2024/03/07 08:13:10;;;;;;;76.47;72.13;;;;;;;;;;4904240;29;20114;-89
2024/03/07 08:15:36;;;;;;;75.13;69.57;;;;;;;;;;4904540;29;20035;-95
2024/03/07 08:18:08;;;;;;;65.03;61.30;;;;;;;;;;4904427;29;20048;-92
2024/03/07 08:20:34;;;;;;;69.53;65.43;;;;;;;;;;4903900;29;20013;-92
2024/03/07 08:23:01;;;;;;;63.83;60.00;;;;;;;;;;4921164;29;20112;-91
2024/03/07 08:25:28;;;;;;;66.53;62.75;;;;;;;;;;4889899;29;20060;-93
2024/03/07 08:27:59;;;;;;;59.83;56.25;;;;;;;;;;4872080;29;20068;-92
2024/03/07 08:30:26;;;;;;;70.82;66.65;;;;;;;;;;4930656;23;20056;-92
2024/03/07 08:32:54;;;;;;;59.25;55.63;;;;;;;;;;4918878;29;20127;-93
2024/03/07 08:35:20;;;;;;;54.92;51.65;;;;;;;;;;4920842;29;20168;-92
2024/03/07 08:37:52;;;;;;;58.00;54.40;;;;;;;;;;4927690;29;20100;-90
2024/03/07 08:40:19;;;;;;;53.75;50.42;;;;;;;;;;4892135;29;20029;-94
2024/03/07 08:42:48;;;;;;;51.35;48.15;;;;;;;;;;4884440;29;20049;-90
2024/03/07 08:45:18;;;;;;;49.90;46.88;;;;;;;;;;4883007;29;20101;-93
2024/03/07 08:47:46;;;;;;;53.90;50.72;;;;;;;;;;4883083;29;20108;-91
2024/03/07 08:50:13;;;;;;;48.25;45.15;;;;;;;;;;4882809;29;20065;-93
2024/03/07 08:52:40;;;;;;;50.50;47.42;;;;;;;;;;4883878;29;20066;-91
2024/03/07 08:55:12;;;;;;;53.25;49.97;;;;;;;;;;4907644;29;20032;-93
2024/03/07 08:57:39;;;;;;;45.55;42.78;;;;;;;;;;4902677;29;20041;-93
2024/03/07 09:00:10;;;;;;;67.07;63.00;;;;;;;;;;4901984;29;20040;-94
2024/03/07 09:02:37;;;;;;;61.78;58.20;;;;;;;;;;4903051;29;20519;-91
2024/03/07 09:05:04;;;;;;;70.68;66.50;;;;;;;;;;4900792;29;20474;-94
2024/03/07 09:07:33;;;;;;;56.38;53.05;;;;;;;;;;4901054;29;20055;-91
2024/03/07 09:10:00;;;;;;;54.03;50.78;;;;;;;;;;4886250;29;20401;-93
2024/03/07 09:12:26;;;;;;;74.30;70.05;;;;;;;;;;4903286;29;20036;-94
2024/03/07 09:14:56;;;;;;;73.22;68.95;;;;;;;;;;4904017;29;20072;-93
2024/03/07 09:17:28;;;;;;;81.70;76.85;;;;;;;;;;4902609;29;20028;-93
2024/03/07 09:19:55;;;;;;;76.03;71.63;;;;;;;;;;4901606;29;20039;-94
2024/03/07 09:22:21;;;;;;;77.97;73.47;;;;;;;;;;4902304;29;20064;-94
2024/03/07 09:24:48;;;;;;;72.72;68.57;;;;;;;;;;4903266;29;20035;-93
2024/03/07 09:27:19;;;;;;;50.10;47.13;;;;;;;;;;4900382;29;20036;-93
2024/03/07 09:29:52;;;;;;;60.28;56.55;;;;;;;;;;4887557;29;20032;-93
2024/03/07 09:32:27;;;;;;;48.28;45.33;;;;;;;;;;4902120;29;20390;-92
2024/03/07 09:34:54;;;;;;;49.15;46.17;;;;;;;;;;4901066;29;20024;-94
2024/03/07 09:37:23;;;;;;;50.20;47.00;;;;;;;;;;4900621;29;20035;-93
2024/03/07 09:39:50;;;;;;;41.78;39.03;;;;;;;;;;4900987;29;20466;-94
2024/03/07 09:42:18;;;;;;;47.13;44.25;;;;;;;;;;4900515;29;20111;-92
2024/03/07 09:44:44;;;;;;;44.55;41.60;;;;;;;;;;4900728;29;20024;-93
2024/03/07 09:47:13;;;;;;;37.28;34.83;;;;;;;;;;4902337;29;20032;-90
2024/03/07 09:49:39;;;;;;;35.80;33.38;;;;;;;;;;4902322;29;20031;-93
2024/03/07 09:52:11;;;;;;;41.72;38.65;;;;;;;;;;4901003;29;20493;-91
2024/03/07 09:54:39;;;;;;;36.88;34.17;;;;;;;;;;4900339;29;20040;-93
2024/03/07 09:57:07;;;;;;;34.50;32.10;;;;;;;;;;4901703;29;20485;-92
2024/03/07 09:59:37;;;;;;;40.15;37.25;;;;;;;;;;4902760;29;20059;-94
2024/03/07 10:02:05;;;;;;;41.33;38.55;;;;;;;;;;4905680;29;20462;-90
2024/03/07 10:04:40;;;;;;;36.53;34.13;;;;;;;;;;4903995;29;20028;-92
2024/03/07 10:07:11;;;;;;;38.90;36.20;;;;;;;;;;4904519;29;20024;-92
2024/03/07 10:09:40;;;;;;;33.72;31.42;;;;;;;;;;4905658;29;20051;-90
2024/03/07 10:12:09;;;;;;;37.25;34.80;;;;;;;;;;4903808;29;20032;-93
2024/03/07 10:14:37;;;;;;;40.10;37.58;;;;;;;;;;4904860;29;20101;-91
2024/03/07 10:17:03;;;;;;;46.53;43.58;;;;;;;;;;4917443;29;20056;-93
2024/03/07 10:19:33;;;;;;;38.83;36.20;;;;;;;;;;4910793;29;20497;-93
2024/03/07 10:22:01;;;;;;;34.92;32.55;;;;;;;;;;4896685;29;20035;-92
2024/03/07 10:24:28;;;;;;;39.78;37.08;;;;;;;;;;4884860;29;20474;-90
2024/03/07 10:26:58;;;;;;;48.00;44.90;;;;;;;;;;4885014;29;20103;-93
2024/03/07 10:29:24;;;;;;;35.05;32.55;;;;;;;;;;4885619;29;20541;-93
2024/03/07 10:31:51;;;;;;;36.90;34.30;;;;;;;;;;4885486;29;20080;-92
2024/03/07 10:34:17;;;;;;;48.50;45.08;;;;;;;;;;4885181;29;20051;-93
2024/03/07 10:36:44;;;;;;;45.78;42.60;;;;;;;;;;4887932;29;20119;-90
2024/03/07 10:39:17;;;;;;;42.20;39.30;;;;;;;;;;4904234;29;20111;-92
2024/03/07 10:41:50;;;;;;;42.55;39.72;;;;;;;;;;4888882;29;20040;-93
2024/03/07 10:44:28;;;;;;;47.83;44.50;;;;;;;;;;4884870;29;20036;-91
2024/03/07 10:46:59;;;;;;;44.47;41.38;;;;;;;;;;4884488;29;20040;-91
2024/03/07 10:49:28;;;;;;;47.88;44.35;;;;;;;;;;4884659;29;20033;-92
2024/03/07 10:52:10;;;;;;;51.63;48.03;;;;;;;;;;4884268;29;20055;-91
2024/03/07 10:54:46;;;;;;;41.35;38.22;;;;;;;;;;4884376;29;20858;-92
2024/03/07 10:57:29;;;;;;;48.95;45.45;;;;;;;;;;4896450;29;20067;-93
2024/03/07 10:59:58;;;;;;;42.15;38.88;;;;;;;;;;4903060;29;20068;-91
2024/03/07 11:02:30;;;;;;;49.13;45.63;;;;;;;;;;4902974;29;20548;-93
2024/03/07 11:04:56;;;;;;;47.20;43.90;;;;;;;;;;4902813;29;20028;-93
2024/03/07 11:07:23;;;;;;;42.10;38.97;;;;;;;;;;4903172;29;20370;-92
2024/03/07 11:09:51;;;;;;;45.97;42.75;;;;;;;;;;4902855;29;20032;-90
2024/03/07 11:12:20;;;;;;;49.92;46.35;;;;;;;;;;4902441;29;20044;-92
2024/03/07 11:14:47;;;;;;;51.42;47.90;;;;;;;;;;4903294;29;20035;-91
2024/03/07 11:17:14;;;;;;;41.30;38.28;;;;;;;;;;4902514;29;20032;-95
2024/03/07 11:19:41;;;;;;;47.20;43.80;;;;;;;;;;4908848;29;20052;-92
2024/03/07 11:22:17;;;;;;;44.30;41.05;;;;;;;;;;4915406;29;20045;-92
2024/03/07 11:24:43;;;;;;;42.63;39.58;;;;;;;;;;4906988;29;20032;-93
2024/03/07 11:27:13;;;;;;;55.55;51.63;;;;;;;;;;4904297;29;20024;-93
2024/03/07 11:30:02;;;;;;;46.72;43.50;;;;;;;;;;4902977;29;20028;-91
2024/03/07 11:32:29;;;;;;;46.20;43.00;;;;;;;;;;4902766;29;20071;-94
2024/03/07 11:34:56;;;;;;;52.13;48.63;;;;;;;;;;4893211;29;20056;-93
2024/03/07 11:37:46;;;;;;;53.15;49.53;;;;;;;;;;4884430;29;20040;-94
2024/03/07 11:40:32;;;;;;;57.95;54.13;;;;;;;;;;4887961;29;20545;-93
2024/03/07 11:42:59;;;;;;;43.42;39.95;;;;;;;;;;4880106;29;20041;-94
2024/03/07 11:45:44;;;;;;;56.70;52.90;;;;;;;;;;4883486;29;20068;-93
2024/03/07 11:48:11;;;;;;;54.50;50.65;;;;;;;;;;4883705;29;20108;-94
2024/03/07 11:50:38;;;;;;;51.35;47.88;;;;;;;;;;4883343;29;20033;-94
2024/03/07 11:53:11;;;;;;;56.20;52.25;;;;;;;;;;4883457;29;20037;-95
2024/03/07 11:55:45;;;;;;;55.08;50.95;;;;;;;;;;4896853;29;20029;-94
2024/03/07 11:58:12;;;;;;;;;;;;;;;;;;4916646;29;20040;-92
2024/03/07 12:00:44;;;;;;;45.15;41.88;;;;;;;;;;4903546;29;19910;-90
2024/03/07 12:03:13;;;;;;;53.05;49.30;;;;;;;;;;4902078;29;20063;-92
2024/03/07 12:05:40;;;;;;;51.90;48.03;;;;;;;;;;4910063;29;20008;-91
2024/03/07 12:08:07;;;;;;;57.10;53.25;;;;;;;;;;4890460;29;20052;-91
2024/03/07 12:10:36;;;;;;;62.60;58.30;;;;;;;;;;4889227;29;20033;-92
2024/03/07 12:13:02;;;;;;;87.35;81.88;;;;;;;;;;4882799;29;20036;-93
2024/03/07 12:15:28;;;;;;;89.97;84.30;;;;;;;;;;4883191;29;20028;-93
2024/03/07 12:17:55;;;;;;;83.25;78.13;;;;;;;;;;4882937;29;20036;-92
2024/03/07 12:20:25;;;;;;;77.82;72.82;;;;;;;;;;4882843;29;20565;-93
2024/03/07 12:22:56;;;;;;;83.88;78.78;;;;;;;;;;4882737;29;20025;-93
2024/03/07 12:25:24;;;;;;;89.32;83.97;;;;;;;;;;4882627;29;20036;-93
2024/03/07 12:28:05;;;;;;;85.70;80.25;;;;;;;;;;4897885;29;20024;-92
2024/03/07 12:30:32;;;;;;;77.63;72.30;;;;;;;;;;4883156;29;20052;-93
2024/03/07 12:32:59;;;;;;;75.25;70.30;;;;;;;;;;4883292;29;20064;-92
2024/03/07 12:35:26;;;;;;;63.75;59.38;;;;;;;;;;4883477;29;20025;-91
2024/03/07 12:37:54;;;;;;;85.22;79.63;;;;;;;;;;4887335;29;20486;-93
2024/03/07 12:40:23;;;;;;;84.80;79.30;;;;;;;;;;4901600;29;20091;-91
2024/03/07 12:42:56;;;;;;;86.28;80.93;;;;;;;;;;4902453;29;20040;-92
2024/03/07 12:45:22;;;;;;;74.55;69.72;;;;;;;;;;4895642;29;20490;-93
2024/03/07 12:47:54;;;;;;;72.32;67.65;;;;;;;;;;4882666;29;20123;-94
2024/03/07 12:50:23;;;;;;;82.15;77.25;;;;;;;;;;4882717;29;20025;-93
2024/03/07 12:52:50;;;;;;;64.07;60.00;;;;;;;;;;4882402;29;20064;-92
2024/03/07 12:55:21;;;;;;;66.28;62.15;;;;;;;;;;4882660;29;20398;-92
2024/03/07 12:57:50;;;;;;;62.08;58.15;;;;;;;;;;4882457;29;20490;-93
2024/03/07 13:00:20;;;;;;;59.35;55.53;;;;;;;;;;4882432;29;20053;-93
2024/03/07 13:02:48;;;;;;;54.65;51.08;;;;;;;;;;4899208;29;20032;-91
2024/03/07 13:05:18;;;;;;;49.33;46.10;;;;;;;;;;4882454;29;20490;-93
2024/03/07 13:07:47;;;;;;;48.83;45.45;;;;;;;;;;4882696;29;20033;-92
2024/03/07 13:10:18;;;;;;;63.30;59.28;;;;;;;;;;4882474;29;20034;-93
2024/03/07 13:12:45;;;;;;;65.38;60.92;;;;;;;;;;4882325;29;20049;-93
2024/03/07 13:15:14;;;;;;;57.55;53.53;;;;;;;;;;4882623;29;20052;-93
2024/03/07 13:17:41;;;;;;;86.72;80.70;;;;;;;;;;4896157;29;20474;-90
2024/03/07 13:20:14;;;;;;;94.35;88.40;;;;;;;;;;4900934;29;20028;-93
2024/03/07 13:22:46;;;;;;;56.83;52.63;;;;;;;;;;4901259;29;20031;-92
2024/03/07 13:25:15;;;;;;;73.77;68.53;;;;;;;;;;4900877;29;20032;-92
2024/03/07 13:27:51;;;;;;;57.50;52.58;;;;;;;;;;4901424;29;20038;-93
2024/03/07 13:30:23;;;;;;;60.83;56.00;;;;;;;;;;4900844;29;20393;-92
2024/03/07 13:32:51;;;;;;;52.65;48.15;;;;;;;;;;4901815;29;20116;-92
2024/03/07 13:35:19;;;;;;;53.47;48.38;;;;;;;;;;4916808;29;20036;-93
2024/03/07 13:37:47;;;;;;;53.92;48.67;;;;;;;;;;4893630;29;20168;-90
2024/03/07 13:40:25;;;;;;;52.70;47.83;;;;;;;;;;4887046;29;20164;-93
2024/03/07 13:42:55;;;;;;;50.10;45.65;;;;;;;;;;4887344;29;20489;-94
2024/03/07 13:45:23;;;;;;;52.50;47.75;;;;;;;;;;4885782;29;20028;-91
2024/03/07 13:47:49;;;;;;;44.72;40.45;;;;;;;;;;4885742;29;20043;-94
2024/03/07 13:50:22;;;;;;;49.15;44.78;;;;;;;;;;4886998;29;20032;-92
2024/03/07 13:55:51;;;;;;;45.30;40.70;;;;;;;;;;4902454;29;20031;-91
2024/03/07 13:58:30;;;;;;;54.28;49.22;;;;;;;;;;4885324;29;20047;-93
2024/03/07 14:01:20;;;;;;;47.05;41.80;;;;;;;;;;4885396;29;20028;-93
2024/03/07 14:04:03;;;;;;;47.65;43.15;;;;;;;;;;4885141;29;20029;-94
2024/03/07 14:06:45;;;;;;;48.88;44.17;;;;;;;;;;4899072;29;20063;-91
2024/03/07 14:09:34;;;;;;;49.97;45.35;;;;;;;;;;4903809;29;20846;-92
2024/03/07 14:12:09;;;;;;;45.30;41.05;;;;;;;;;;4900772;29;20127;-93
2024/03/07 14:14:45;;;;;;;45.22;40.90;;;;;;;;;;4908198;29;20032;-92
2024/03/07 14:17:14;;;;;;;52.22;47.65;;;;;;;;;;4894824;29;20032;-91
2024/03/07 14:19:54;;;;;;;52.78;48.10;;;;;;;;;;4919062;29;20103;-91
2024/03/07 14:22:32;;;;;;;51.63;47.10;;;;;;;;;;4893326;29;20475;-91
2024/03/07 14:25:16;;;;;;;45.95;41.70;;;;;;;;;;4886288;29;20033;-90
2024/03/07 14:27:49;;;;;;;;;;;;;;;;;;4885748;29;20084;-92
2024/03/07 14:30:40;;;;;;;51.95;47.15;;;;;;;;;;4884996;29;19911;-91
2024/03/07 14:33:07;;;;;;;52.40;47.60;;;;;;;;;;4885270;29;20081;-93
2024/03/07 14:35:56;;;;;;;52.22;47.72;;;;;;;;;;4884824;29;20387;-90
2024/03/07 14:38:23;;;;;;;48.03;43.63;;;;;;;;;;4884604;29;20039;-93
2024/03/07 14:40:50;;;;;;;47.72;43.38;;;;;;;;;;4884399;29;20068;-90